Time;durP1;ratioP1;P1;durP2;ratioP2;P2;SDS_P1;SDS_P2;PMS_P1;PMS_P2;Temp;Humidity;BMP_temperature;BMP_pressure;BME280_temperature;BME280_humidity;BME280_pressure;Samples;Min_cycle;Max_cycle;Signal;HPM_P1;HPM_P2
2022/01/27 00:00:38;;;;;;;3.85;1.40;;;7.80;99.90;;;;;;4866549;29;20145;-62
2022/01/27 00:08:06;;;;;;;4.50;1.10;;;7.80;99.90;;;;;;4893647;29;20052;-62
2022/01/27 00:13:12;;;;;;;2.97;1.50;;;7.80;99.90;;;;;;4893199;29;20435;-64
2022/01/27 00:15:41;;;;;;;2.85;0.90;;;7.80;99.90;;;;;;4905218;29;20044;-59
2022/01/27 00:18:15;;;;;;;3.17;1.00;;;7.80;99.90;;;;;;4892768;29;20562;-62
2022/01/27 00:20:45;;;;;;;5.70;1.42;;;7.90;99.90;;;;;;4893173;29;20524;-64
2022/01/27 00:23:14;;;;;;;6.22;1.15;;;7.90;99.90;;;;;;4891998;29;20056;-64
2022/01/27 00:25:42;;;;;;;2.70;0.90;;;7.90;99.90;;;;;;4892368;29;20044;-60
2022/01/27 00:28:10;;;;;;;5.15;2.03;;;7.90;99.90;;;;;;4893854;29;20063;-65
2022/01/27 00:30:39;;;;;;;7.40;1.38;;;7.90;99.90;;;;;;4912361;29;20059;-64
2022/01/27 00:33:08;;;;;;;2.90;1.08;;;7.90;99.90;;;;;;4902439;29;20526;-61
2022/01/27 00:35:36;;;;;;;1.95;0.90;;;7.90;99.90;;;;;;4898761;29;20075;-58
2022/01/27 00:38:07;;;;;;;3.28;0.85;;;8.00;99.90;;;;;;4876377;29;20068;-58
2022/01/27 00:40:34;;;;;;;1.83;0.80;;;8.00;99.90;;;;;;4893270;29;20528;-58
2022/01/27 00:43:02;;;;;;;3.30;0.80;;;8.00;99.90;;;;;;4907954;29;20079;-58
2022/01/27 00:45:32;;;;;;;1.80;0.90;;;8.10;99.90;;;;;;4902517;29;20060;-58
2022/01/27 00:48:03;;;;;;;4.35;1.00;;;8.10;99.90;;;;;;4905617;29;20060;-62
2022/01/27 00:50:41;;;;;;;1.75;0.60;;;8.10;99.90;;;;;;4910760;29;20055;-61
2022/01/27 00:53:58;;;;;;;3.42;1.25;;;8.10;99.90;;;;;;4906937;29;20069;-60
2022/01/27 00:56:12;;;;;;;2.67;0.55;;;8.10;99.90;;;;;;4888360;29;20501;-59
2022/01/27 01:01:15;;;;;;;1.88;1.00;;;8.20;99.90;;;;;;4905753;29;20525;-57
2022/01/27 01:03:46;;;;;;;2.17;0.43;;;8.20;99.90;;;;;;4889477;29;20048;-59
2022/01/27 01:14:33;;;;;;;1.70;0.50;;;8.30;99.90;;;;;;4891781;29;20059;-61
2022/01/27 01:33:58;;;;;;;5.65;1.70;;;8.20;99.90;;;;;;4904657;29;20056;-58
2022/01/27 01:36:37;;;;;;;6.65;1.63;;;8.30;99.90;;;;;;4896238;29;20464;-59
2022/01/27 01:39:05;;;;;;;9.73;1.50;;;8.30;99.90;;;;;;4895946;29;20059;-58
2022/01/27 01:41:33;;;;;;;5.07;1.02;;;8.30;99.90;;;;;;4894971;29;20067;-61
2022/01/27 01:44:01;;;;;;;6.03;1.45;;;8.20;99.90;;;;;;4894900;29;20056;-58
2022/01/27 01:46:29;;;;;;;8.70;1.75;;;8.20;99.90;;;;;;4903452;29;20055;-57
2022/01/27 01:48:57;;;;;;;10.25;2.03;;;8.20;99.90;;;;;;4913423;29;20048;-58
2022/01/27 01:51:28;;;;;;;4.72;1.42;;;8.30;99.90;;;;;;4900393;29;20044;-57
2022/01/27 01:53:57;;;;;;;11.80;1.77;;;8.20;99.90;;;;;;4913064;29;20060;-58
2022/01/27 01:56:25;;;;;;;9.10;1.90;;;8.20;99.90;;;;;;4914804;29;20048;-58
2022/01/27 01:58:54;;;;;;;9.82;2.83;;;8.20;99.90;;;;;;4914709;29;20056;-59
2022/01/27 02:01:22;;;;;;;8.20;2.30;;;8.20;99.90;;;;;;4914402;29;20048;-57
2022/01/27 02:03:50;;;;;;;5.03;1.17;;;8.30;99.90;;;;;;4914251;29;20225;-58
2022/01/27 02:06:32;;;;;;;8.65;2.03;;;8.30;99.90;;;;;;4895565;29;20515;-60
2022/01/27 02:19:56;;;;;;;10.90;2.42;;;8.30;99.90;;;;;;4895578;29;20048;-57
2022/01/27 02:22:24;;;;;;;3.45;1.00;;;8.30;99.90;;;;;;4895379;29;20057;-58
2022/01/27 02:24:53;;;;;;;10.40;1.90;;;8.30;99.90;;;;;;4895121;29;20051;-59
2022/01/27 02:27:22;;;;;;;6.65;1.73;;;8.40;99.90;;;;;;4893968;29;20067;-58
2022/01/27 02:29:50;;;;;;;8.85;1.40;;;8.40;99.90;;;;;;4894064;29;20055;-58
2022/01/27 02:32:19;;;;;;;10.43;1.58;;;8.40;99.90;;;;;;4899545;29;20056;-57
2022/01/27 02:34:47;;;;;;;9.82;1.65;;;8.40;99.90;;;;;;4898883;29;20049;-58
2022/01/27 02:37:15;;;;;;;6.00;1.45;;;8.40;99.90;;;;;;4912791;29;20048;-60
2022/01/27 02:39:43;;;;;;;7.15;1.33;;;8.40;99.90;;;;;;4897955;29;20385;-59
2022/01/27 02:42:26;;;;;;;10.07;1.45;;;8.40;99.90;;;;;;4898251;29;20064;-59
2022/01/27 02:44:54;;;;;;;9.70;1.17;;;8.50;99.90;;;;;;4898201;29;20052;-58
2022/01/27 02:47:24;;;;;;;3.00;1.10;;;8.40;99.90;;;;;;4914536;29;20048;-58
2022/01/27 02:49:52;;;;;;;8.48;2.88;;;8.40;99.90;;;;;;4915849;29;20063;-58
2022/01/27 02:52:20;;;;;;;6.82;1.10;;;8.40;99.90;;;;;;4916951;29;20063;-58
2022/01/27 02:54:48;;;;;;;8.02;1.45;;;8.40;99.90;;;;;;4916903;29;20059;-58
2022/01/27 02:57:24;;;;;;;3.50;0.80;;;8.40;99.90;;;;;;4916610;29;20048;-62
2022/01/27 02:59:52;;;;;;;4.25;0.70;;;8.40;99.90;;;;;;4916567;29;20068;-63
2022/01/27 03:02:20;;;;;;;3.58;0.73;;;8.40;99.90;;;;;;4916755;29;20055;-61
2022/01/27 03:04:48;;;;;;;1.15;0.50;;;8.40;99.90;;;;;;4916761;29;20059;-63
2022/01/27 03:07:17;;;;;;;3.35;0.60;;;8.40;99.90;;;;;;4916578;29;20059;-63
2022/01/27 03:09:44;;;;;;;3.35;0.55;;;8.40;99.90;;;;;;4915554;29;20044;-59
2022/01/27 03:12:13;;;;;;;2.38;0.63;;;8.50;99.90;;;;;;4915479;29;20613;-60
2022/01/27 03:14:41;;;;;;;3.70;0.50;;;8.50;99.90;;;;;;4916205;29;20048;-60
2022/01/27 03:17:10;;;;;;;4.97;0.82;;;8.50;99.90;;;;;;4916638;29;20047;-60
2022/01/27 03:19:38;;;;;;;1.58;0.20;;;8.50;99.90;;;;;;4915361;29;20072;-61
2022/01/27 03:22:08;;;;;;;0.47;0.20;;;8.60;99.90;;;;;;4916495;29;20047;-59
2022/01/27 03:24:37;;;;;;;1.20;0.40;;;8.60;99.90;;;;;;4916439;29;20059;-59
2022/01/27 03:27:13;;;;;;;6.22;0.70;;;8.60;99.90;;;;;;4914823;29;20519;-59
2022/01/27 03:29:41;;;;;;;1.80;0.63;;;8.60;99.90;;;;;;4916345;29;20048;-58
2022/01/27 03:32:09;;;;;;;0.50;0.10;;;8.60;99.90;;;;;;4916344;29;20048;-58
2022/01/27 03:34:37;;;;;;;3.33;0.40;;;8.60;99.90;;;;;;4916170;29;20068;-59
2022/01/27 03:37:05;;;;;;;5.05;0.20;;;8.70;99.90;;;;;;4916077;29;20432;-58
2022/01/27 03:39:36;;;;;;;0.77;0.30;;;8.70;99.90;;;;;;4916185;29;20396;-61
2022/01/27 03:42:05;;;;;;;1.65;0.32;;;8.70;99.90;;;;;;4916133;29;20044;-61
2022/01/27 03:44:34;;;;;;;1.00;0.20;;;8.70;99.90;;;;;;4914158;29;20040;-62
2022/01/27 03:47:02;;;;;;;1.55;0.20;;;8.70;99.90;;;;;;4915904;29;20314;-59
2022/01/27 03:49:30;;;;;;;0.20;0.10;;;8.70;99.90;;;;;;4916068;29;20040;-60
2022/01/27 03:52:01;;;;;;;1.60;0.20;;;8.70;99.90;;;;;;4914862;29;20052;-58
2022/01/27 03:54:32;;;;;;;0.73;0.10;;;8.70;99.90;;;;;;4915982;29;20523;-59
2022/01/27 03:57:00;;;;;;;0.90;0.10;;;8.70;99.90;;;;;;4915819;29;20051;-59
2022/01/27 03:59:29;;;;;;;0.43;0.10;;;8.80;99.90;;;;;;4915863;29;20169;-57
2022/01/27 04:01:58;;;;;;;1.33;0.10;;;8.80;99.90;;;;;;4915798;29;20419;-60
2022/01/27 04:04:26;;;;;;;0.30;0.10;;;8.80;99.90;;;;;;4915793;29;20048;-60
2022/01/27 04:06:54;;;;;;;1.05;0.20;;;8.80;99.90;;;;;;4914349;29;20520;-58
2022/01/27 04:09:24;;;;;;;0.47;0.10;;;8.80;99.90;;;;;;4915645;29;20395;-59
2022/01/27 04:11:52;;;;;;;0.52;0.10;;;8.80;99.90;;;;;;4915616;29;20052;-61
2022/01/27 04:14:20;;;;;;;0.60;0.20;;;8.80;99.90;;;;;;4915752;29;20059;-60
2022/01/27 04:16:47;;;;;;;0.38;0.10;;;8.80;99.90;;;;;;4914466;29;20048;-58
2022/01/27 04:19:15;;;;;;;0.20;0.20;;;8.70;99.90;;;;;;4915455;29;20052;-58
2022/01/27 04:21:45;;;;;;;0.15;0.15;;;8.70;99.90;;;;;;4915699;29;20540;-57
2022/01/27 04:24:16;;;;;;;0.98;0.15;;;8.80;99.90;;;;;;4915500;29;20087;-57
2022/01/27 04:26:49;;;;;;;0.20;0.08;;;8.80;99.90;;;;;;4914568;29;20044;-58
2022/01/27 04:29:20;;;;;;;0.10;0.10;;;8.80;99.90;;;;;;4915040;29;20516;-57
2022/01/27 04:31:49;;;;;;;0.80;0.10;;;8.90;99.90;;;;;;4915520;29;20052;-58
2022/01/27 04:34:19;;;;;;;0.13;0.00;;;9.00;99.90;;;;;;4915355;29;20051;-58
2022/01/27 04:36:47;;;;;;;0.00;0.00;;;9.00;99.90;;;;;;4915251;29;20052;-59
2022/01/27 04:39:25;;;;;;;0.22;0.00;;;9.10;99.90;;;;;;4915347;29;20059;-58
2022/01/27 04:42:00;;;;;;;0.03;0.03;;;9.10;99.90;;;;;;4915330;29;20059;-58
2022/01/27 04:44:45;;;;;;;0.00;0.00;;;9.10;99.90;;;;;;4915316;29;20059;-58
2022/01/27 04:47:24;;;;;;;0.00;0.00;;;9.10;99.90;;;;;;4915266;29;20044;-59
2022/01/27 04:49:52;;;;;;;0.25;0.10;;;9.10;99.90;;;;;;4915245;29;20052;-61
2022/01/27 04:52:20;;;;;;;0.08;0.00;;;9.10;99.90;;;;;;4915343;29;20055;-58
2022/01/27 04:55:03;;;;;;;0.68;0.15;;;9.10;99.90;;;;;;4915056;29;20059;-59
2022/01/27 04:57:31;;;;;;;0.08;0.08;;;9.10;99.90;;;;;;4918475;29;20052;-59
2022/01/27 04:59:59;;;;;;;0.08;0.08;;;9.10;99.90;;;;;;4919016;29;20048;-61
2022/01/27 05:02:38;;;;;;;0.80;0.20;;;9.10;99.90;;;;;;4918982;29;20055;-64
2022/01/27 05:05:06;;;;;;;0.68;0.10;;;9.00;99.90;;;;;;4917799;29;20051;-62
2022/01/27 05:08:00;;;;;;;1.75;0.13;;;9.00;99.90;;;;;;4918772;29;20048;-63
2022/01/27 05:10:32;;;;;;;;;;;9.00;99.90;;;;;;4919227;29;20067;-64
2022/01/27 05:13:08;;;;;;;1.25;0.10;;;9.00;99.90;;;;;;4918968;29;19923;-63
2022/01/27 05:15:43;;;;;;;1.33;0.10;;;8.90;99.90;;;;;;4918676;29;20623;-63
2022/01/27 05:18:15;;;;;;;2.30;0.38;;;8.90;99.90;;;;;;4918539;29;20044;-63
2022/01/27 05:20:44;;;;;;;0.47;0.00;;;8.90;99.90;;;;;;4918691;29;20048;-62
2022/01/27 05:23:12;;;;;;;0.80;0.10;;;8.80;99.90;;;;;;4918691;29;20044;-62
2022/01/27 05:25:40;;;;;;;0.10;0.10;;;8.90;99.90;;;;;;4918602;29;20056;-61
2022/01/27 05:28:08;;;;;;;0.98;0.20;;;8.80;99.90;;;;;;4917958;29;20071;-62
2022/01/27 05:30:36;;;;;;;0.30;0.15;;;8.80;99.90;;;;;;4918375;29;20044;-63
2022/01/27 05:33:04;;;;;;;4.13;0.30;;;8.80;99.90;;;;;;4918493;29;20055;-63
2022/01/27 05:35:32;;;;;;;1.05;0.10;;;8.90;99.90;;;;;;4918289;29;20059;-62
2022/01/27 05:38:01;;;;;;;0.13;0.10;;;8.90;99.90;;;;;;4918449;29;20515;-63
2022/01/27 05:40:29;;;;;;;4.10;0.20;;;8.90;99.90;;;;;;4918352;29;20488;-63
2022/01/27 05:42:57;;;;;;;1.95;0.20;;;8.90;99.90;;;;;;4917349;29;20298;-62
2022/01/27 05:45:25;;;;;;;2.70;0.20;;;8.90;99.90;;;;;;4918459;29;20492;-63
2022/01/27 05:47:53;;;;;;;0.28;0.10;;;8.90;99.90;;;;;;4908083;29;20048;-58
2022/01/27 05:50:21;;;;;;;0.75;0.20;;;8.90;99.90;;;;;;4896035;29;20045;-59
2022/01/27 05:52:49;;;;;;;2.20;0.70;;;8.90;99.90;;;;;;4896046;29;20049;-59
2022/01/27 05:55:18;;;;;;;0.65;0.15;;;8.90;99.90;;;;;;4895648;29;20052;-59
2022/01/27 05:57:47;;;;;;;0.10;0.10;;;8.90;99.90;;;;;;4895898;29;20044;-60
2022/01/27 06:00:16;;;;;;;0.15;0.10;;;8.90;99.90;;;;;;4900422;29;20052;-58
2022/01/27 06:02:44;;;;;;;0.40;0.17;;;8.90;99.90;;;;;;4904285;29;20048;-60
2022/01/27 06:05:12;;;;;;;0.75;0.15;;;8.90;99.90;;;;;;4911674;29;20048;-59
2022/01/27 06:07:40;;;;;;;0.15;0.10;;;8.90;99.90;;;;;;4904453;29;20049;-58
2022/01/27 06:10:08;;;;;;;0.32;0.00;;;8.90;99.90;;;;;;4894394;29;20575;-58
2022/01/27 06:12:56;;;;;;;1.15;0.10;;;8.90;99.90;;;;;;4894367;29;20052;-58
2022/01/27 06:15:25;;;;;;;2.95;0.20;;;8.90;99.90;;;;;;4895690;29;20065;-58
2022/01/27 06:17:54;;;;;;;;;;;8.90;99.90;;;;;;4893041;29;20053;-58
2022/01/27 06:20:22;;;;;;;0.65;0.15;;;9.00;99.90;;;;;;4892441;29;19927;-58
2022/01/27 06:22:59;;;;;;;1.13;0.20;;;9.00;99.90;;;;;;4893797;29;20056;-58
2022/01/27 06:25:32;;;;;;;0.20;0.20;;;9.00;99.90;;;;;;4895539;29;20056;-59
2022/01/27 06:28:00;;;;;;;0.30;0.20;;;8.90;99.90;;;;;;4893936;29;20064;-61
2022/01/27 06:30:28;;;;;;;0.95;0.20;;;9.00;99.90;;;;;;4895213;29;20053;-58
2022/01/27 06:32:56;;;;;;;0.55;0.28;;;9.00;99.90;;;;;;4895220;29;20051;-60
2022/01/27 06:35:24;;;;;;;1.13;0.40;;;9.00;99.90;;;;;;4894741;29;20056;-57
2022/01/27 06:37:52;;;;;;;2.95;0.32;;;9.00;99.90;;;;;;4891605;29;20071;-58
2022/01/27 06:40:20;;;;;;;0.73;0.38;;;9.00;99.90;;;;;;4891090;29;20048;-58
2022/01/27 06:42:48;;;;;;;3.70;0.40;;;8.90;99.90;;;;;;4894288;29;20497;-59
2022/01/27 06:45:15;;;;;;;1.88;0.32;;;8.90;99.90;;;;;;4894847;29;20063;-58
2022/01/27 06:47:43;;;;;;;0.45;0.40;;;8.90;99.90;;;;;;4891821;29;20048;-58
2022/01/27 06:50:11;;;;;;;1.33;0.30;;;9.00;99.90;;;;;;4891957;29;20181;-59
2022/01/27 06:52:41;;;;;;;3.47;0.52;;;8.90;99.90;;;;;;4894148;29;20520;-58
2022/01/27 06:55:14;;;;;;;1.95;0.63;;;9.00;99.90;;;;;;4893778;29;20408;-58
2022/01/27 06:57:41;;;;;;;2.55;0.45;;;9.00;99.90;;;;;;4894820;29;20061;-57
2022/01/27 07:00:10;;;;;;;0.60;0.50;;;9.00;99.90;;;;;;4894901;29;20049;-58
2022/01/27 07:02:38;;;;;;;1.95;0.60;;;9.00;99.90;;;;;;4891609;29;20400;-58
2022/01/27 07:05:07;;;;;;;1.02;0.52;;;9.00;99.90;;;;;;4891953;29;20484;-59
2022/01/27 07:07:35;;;;;;;1.08;0.50;;;9.00;99.90;;;;;;4894278;29;20052;-57
2022/01/27 07:10:03;;;;;;;1.42;0.80;;;9.10;99.90;;;;;;4894387;29;20063;-58
2022/01/27 07:12:31;;;;;;;3.13;0.80;;;9.10;99.90;;;;;;4893133;29;20071;-59
2022/01/27 07:14:59;;;;;;;1.75;0.60;;;9.10;99.90;;;;;;4893003;29;20052;-59
2022/01/27 07:17:28;;;;;;;1.75;0.80;;;9.10;99.90;;;;;;4894512;29;20055;-59
2022/01/27 07:19:56;;;;;;;1.27;0.75;;;9.10;99.90;;;;;;4893933;29;20068;-60
2022/01/27 07:22:24;;;;;;;2.17;1.20;;;9.10;99.90;;;;;;4890963;29;20056;-58
2022/01/27 07:24:51;;;;;;;1.70;1.20;;;9.10;99.90;;;;;;4891072;29;20802;-59
2022/01/27 07:27:20;;;;;;;2.80;1.25;;;9.10;99.90;;;;;;4893545;29;20539;-59
2022/01/27 07:29:48;;;;;;;2.70;1.30;;;9.10;99.90;;;;;;4894364;29;20053;-58
2022/01/27 07:32:16;;;;;;;2.17;1.60;;;9.20;99.90;;;;;;4892820;29;20048;-57
2022/01/27 07:34:47;;;;;;;6.95;1.83;;;9.20;99.90;;;;;;4892887;29;20064;-57
2022/01/27 07:37:15;;;;;;;6.53;1.98;;;9.20;99.90;;;;;;4894209;29;20056;-57
2022/01/27 07:39:43;;;;;;;3.90;1.70;;;9.20;99.90;;;;;;4894141;29;20413;-57
2022/01/27 07:42:11;;;;;;;3.22;1.83;;;9.20;99.90;;;;;;4893800;29;20049;-58
2022/01/27 07:44:40;;;;;;;11.10;2.55;;;9.20;99.90;;;;;;4892922;29;20055;-58
2022/01/27 07:47:08;;;;;;;6.55;2.10;;;9.20;99.90;;;;;;4893730;29;20067;-58
2022/01/27 07:49:36;;;;;;;6.25;2.17;;;9.20;99.90;;;;;;4894059;29;20059;-60
2022/01/27 07:52:04;;;;;;;4.30;2.03;;;9.20;99.90;;;;;;4893577;29;20049;-60
2022/01/27 07:54:32;;;;;;;12.50;2.60;;;9.20;99.90;;;;;;4892574;29;20489;-59
2022/01/27 07:57:00;;;;;;;5.10;2.67;;;9.20;99.90;;;;;;4892536;29;20052;-60
2022/01/27 07:59:28;;;;;;;5.57;2.83;;;9.20;99.90;;;;;;4893678;29;20061;-63
2022/01/27 08:01:56;;;;;;;8.13;2.38;;;9.20;99.90;;;;;;4891065;29;20048;-60
2022/01/27 08:04:26;;;;;;;13.30;3.17;;;9.20;99.90;;;;;;4890764;29;20052;-61
2022/01/27 08:06:54;;;;;;;8.67;2.73;;;9.20;99.90;;;;;;4891498;29;20410;-60
2022/01/27 08:09:22;;;;;;;9.98;3.15;;;9.20;99.90;;;;;;4892217;29;20048;-63
2022/01/27 08:11:49;;;;;;;15.60;3.80;;;9.20;99.90;;;;;;4892235;29;20051;-62
2022/01/27 08:14:18;;;;;;;6.97;2.55;;;9.20;99.90;;;;;;4893585;29;20060;-63
2022/01/27 08:16:46;;;;;;;15.77;3.22;;;9.20;99.90;;;;;;4893297;29;20043;-62
2022/01/27 08:19:14;;;;;;;13.80;3.17;;;9.20;99.90;;;;;;4893821;29;20059;-63
2022/01/27 08:21:41;;;;;;;16.17;3.80;;;9.20;99.90;;;;;;4892188;29;20056;-63
2022/01/27 08:24:11;;;;;;;21.05;3.53;;;9.10;99.90;;;;;;4890438;29;20052;-58
2022/01/27 08:26:42;;;;;;;18.30;3.58;;;9.10;99.90;;;;;;4891511;29;20052;-59
2022/01/27 08:31:54;;;;;;;8.30;2.20;;;9.10;99.90;;;;;;4890066;29;20048;-59
2022/01/27 08:34:37;;;;;;;15.23;2.28;;;9.00;99.90;;;;;;4890176;29;20059;-59
2022/01/27 08:37:12;;;;;;;14.32;2.95;;;9.00;99.90;;;;;;4890061;29;20509;-58
2022/01/27 08:39:40;;;;;;;8.88;2.50;;;8.90;99.90;;;;;;4893192;29;20049;-58
2022/01/27 08:42:08;;;;;;;21.55;3.97;;;8.90;99.90;;;;;;4892740;29;20049;-58
2022/01/27 08:44:37;;;;;;;10.73;3.30;;;8.90;99.90;;;;;;4893106;29;20065;-58
2022/01/27 08:47:06;;;;;;;16.98;3.95;;;8.90;99.90;;;;;;4893330;29;20057;-59
2022/01/27 08:49:35;;;;;;;10.65;3.10;;;8.90;99.90;;;;;;4893409;29;20059;-58
2022/01/27 08:52:04;;;;;;;14.07;3.10;;;8.90;99.90;;;;;;4892747;29;20048;-59
2022/01/27 08:54:32;;;;;;;23.50;3.70;;;8.90;99.90;;;;;;4892975;29;20460;-60
2022/01/27 08:57:00;;;;;;;14.85;4.20;;;8.90;99.90;;;;;;4893065;29;20040;-60
2022/01/27 08:59:27;;;;;;;15.20;3.30;;;8.90;99.90;;;;;;4893090;29;20049;-63
2022/01/27 09:01:55;;;;;;;16.58;2.90;;;8.90;99.90;;;;;;4892798;29;20052;-59
2022/01/27 09:04:23;;;;;;;15.98;3.65;;;9.00;99.90;;;;;;4893701;29;20053;-59
2022/01/27 09:06:51;;;;;;;7.78;2.38;;;8.90;99.90;;;;;;4892998;29;20441;-58
2022/01/27 09:09:19;;;;;;;3.45;1.63;;;9.00;99.90;;;;;;4892718;29;20052;-57
2022/01/27 09:11:47;;;;;;;10.95;1.95;;;9.00;99.90;;;;;;4893108;29;20075;-58
2022/01/27 09:14:15;;;;;;;7.80;2.17;;;8.90;99.90;;;;;;4894940;29;20586;-57
2022/01/27 09:16:43;;;;;;;9.23;1.30;;;8.90;99.90;;;;;;4904807;29;20059;-59
2022/01/27 09:19:17;;;;;;;16.23;2.97;;;8.90;99.90;;;;;;4894824;29;20044;-59
2022/01/27 09:21:46;;;;;;;16.88;2.03;;;8.90;99.90;;;;;;4905044;29;20055;-59
2022/01/27 09:24:17;;;;;;;9.70;1.92;;;8.90;99.90;;;;;;4909338;29;20052;-58
2022/01/27 09:29:20;;;;;;;11.38;3.88;;;8.90;99.90;;;;;;4910275;29;20639;-58
2022/01/27 09:31:49;;;;;;;12.02;4.97;;;8.90;99.90;;;;;;4910053;29;20060;-59
2022/01/27 09:34:18;;;;;;;20.35;2.65;;;8.90;99.90;;;;;;4892058;29;20055;-61
2022/01/27 09:36:53;;;;;;;9.25;1.38;;;9.00;99.90;;;;;;4911250;29;20423;-60
2022/01/27 09:39:23;;;;;;;10.18;1.30;;;8.90;99.90;;;;;;4911218;29;20060;-59
2022/01/27 09:41:54;;;;;;;10.98;1.45;;;8.90;99.90;;;;;;4910926;29;20044;-58
2022/01/27 09:44:29;;;;;;;16.00;1.35;;;8.90;99.90;;;;;;4893961;29;20509;-60
2022/01/27 09:47:00;;;;;;;7.95;1.60;;;8.90;99.90;;;;;;4894915;29;20056;-60
2022/01/27 09:49:48;;;;;;;8.75;1.15;;;8.90;99.90;;;;;;4899832;29;20392;-60
2022/01/27 09:52:17;;;;;;;8.05;1.27;;;9.00;99.90;;;;;;4901366;29;20052;-63
2022/01/27 09:54:46;;;;;;;5.45;1.45;;;9.10;99.90;;;;;;4895810;29;20053;-61
2022/01/27 09:57:16;;;;;;;6.57;0.93;;;9.20;99.90;;;;;;4904107;29;20040;-63
2022/01/27 09:59:46;;;;;;;7.05;1.58;;;9.30;99.90;;;;;;4906944;29;20052;-62
2022/01/27 10:02:21;;;;;;;3.03;0.50;;;9.30;99.90;;;;;;4909272;29;20059;-57
2022/01/27 10:04:51;;;;;;;4.07;0.47;;;9.30;99.90;;;;;;4905519;29;20045;-60
2022/01/27 10:07:30;;;;;;;8.50;0.50;;;9.40;99.90;;;;;;4904918;29;20711;-62
2022/01/27 10:10:10;;;;;;;7.85;0.70;;;9.30;99.90;;;;;;4892458;29;20049;-57
2022/01/27 10:12:43;;;;;;;6.30;0.93;;;9.30;99.90;;;;;;4905236;29;20048;-58
2022/01/27 10:15:18;;;;;;;6.45;1.00;;;9.30;99.90;;;;;;4907448;29;20048;-57
2022/01/27 10:18:15;;;;;;;3.28;0.68;;;9.30;99.90;;;;;;4908932;29;20049;-57
2022/01/27 10:21:05;;;;;;;2.78;0.50;;;9.30;99.90;;;;;;4892593;29;20063;-57
2022/01/27 10:23:37;;;;;;;5.30;0.32;;;9.30;99.90;;;;;;4893168;29;20401;-58
2022/01/27 10:26:23;;;;;;;2.97;0.45;;;9.30;99.90;;;;;;4895361;29;20489;-59
2022/01/27 10:29:05;;;;;;;4.05;0.57;;;9.40;99.90;;;;;;4907101;29;20044;-58
2022/01/27 10:31:35;;;;;;;4.93;1.02;;;9.30;99.90;;;;;;4914073;29;20675;-57
2022/01/27 10:34:05;;;;;;;;;;;9.30;99.90;;;;;;4912851;29;20063;-58
2022/01/27 10:36:40;;;;;;;4.38;0.52;;;9.30;99.90;;;;;;4898057;29;20427;-60
2022/01/27 10:39:11;;;;;;;3.75;0.70;;;9.30;99.90;;;;;;4898091;29;20060;-58
2022/01/27 10:41:59;;;;;;;7.15;0.47;;;9.40;99.90;;;;;;4904870;29;20048;-60
2022/01/27 10:44:37;;;;;;;5.93;1.25;;;9.50;99.90;;;;;;4893407;29;20055;-63
2022/01/27 10:47:20;;;;;;;2.95;0.20;;;9.70;99.90;;;;;;4892335;29;20056;-58
2022/01/27 10:49:59;;;;;;;0.90;0.13;;;9.80;99.90;;;;;;4892312;29;20041;-63
2022/01/27 10:52:45;;;;;;;4.88;0.70;;;9.90;99.90;;;;;;4908377;29;20060;-65
2022/01/27 10:55:19;;;;;;;4.47;0.60;;;10.00;99.90;;;;;;4911612;29;20044;-64
2022/01/27 10:57:50;;;;;;;6.22;0.40;;;10.10;99.90;;;;;;4908926;29;20208;-58
2022/01/27 11:00:22;;;;;;;2.70;0.45;;;10.20;99.90;;;;;;4895215;29;20053;-61
2022/01/27 11:02:58;;;;;;;1.38;0.30;;;10.20;99.90;;;;;;4909247;29;20044;-59
2022/01/27 11:05:30;;;;;;;3.15;0.43;;;10.30;99.90;;;;;;4912355;29;20055;-60
2022/01/27 11:07:59;;;;;;;5.45;1.30;;;10.30;99.90;;;;;;4896285;29;20052;-58
2022/01/27 11:10:27;;;;;;;5.97;0.90;;;10.20;99.90;;;;;;4913208;29;20048;-61
2022/01/27 11:12:58;;;;;;;6.00;1.17;;;10.20;99.90;;;;;;4913337;29;20056;-59
2022/01/27 11:15:32;;;;;;;7.32;1.30;;;10.20;99.90;;;;;;4913040;29;20063;-58
2022/01/27 11:18:04;;;;;;;5.10;0.50;;;10.20;99.90;;;;;;4913058;29;20055;-59
2022/01/27 11:26:09;;;;;;;6.20;0.70;;;10.10;99.90;;;;;;4903455;29;20048;-59
2022/01/27 11:28:45;;;;;;;6.75;0.80;;;9.90;99.90;;;;;;4901384;29;20076;-58
2022/01/27 11:31:43;;;;;;;11.63;2.08;;;9.80;99.90;;;;;;4900706;29;20102;-59
2022/01/27 11:34:12;;;;;;;5.07;0.77;;;9.80;99.90;;;;;;4911341;29;20048;-58
2022/01/27 11:37:03;;;;;;;10.25;1.02;;;9.80;99.90;;;;;;4899329;29;20049;-58
2022/01/27 11:39:50;;;;;;;4.55;1.05;;;9.90;99.90;;;;;;4910397;29;20366;-59
2022/01/27 11:42:35;;;;;;;7.32;1.13;;;10.10;99.90;;;;;;4910359;29;20060;-59
2022/01/27 11:45:34;;;;;;;11.63;1.02;;;10.30;99.90;;;;;;4906797;29;20052;-59
2022/01/27 11:48:10;;;;;;;12.25;1.10;;;10.50;99.90;;;;;;4908243;29;21308;-59
2022/01/27 11:50:50;;;;;;;2.22;0.75;;;10.60;99.90;;;;;;4910816;29;20451;-59
2022/01/27 11:53:36;;;;;;;5.30;1.00;;;10.70;99.90;;;;;;4902076;29;20040;-59
2022/01/27 11:56:31;;;;;;;7.13;0.98;;;10.80;99.90;;;;;;4910503;29;20529;-59
2022/01/27 11:59:01;;;;;;;7.63;1.35;;;10.80;99.90;;;;;;4888857;29;20053;-58
2022/01/27 12:01:31;;;;;;;6.82;1.17;;;10.80;99.90;;;;;;4893838;29;20044;-59
2022/01/27 12:04:04;;;;;;;7.38;1.70;;;10.70;99.90;;;;;;4893384;29;20524;-58
2022/01/27 12:06:37;;;;;;;4.85;1.60;;;10.60;99.90;;;;;;4905473;29;20052;-59
2022/01/27 12:09:19;;;;;;;4.15;1.10;;;10.50;99.90;;;;;;4911933;29;20512;-57
2022/01/27 12:11:52;;;;;;;10.45;1.13;;;10.60;99.90;;;;;;4912045;29;20052;-57
2022/01/27 12:14:48;;;;;;;8.38;0.93;;;10.80;99.90;;;;;;4910339;29;20052;-58
2022/01/27 12:17:20;;;;;;;4.88;1.48;;;11.20;99.90;;;;;;4909393;29;20408;-59
2022/01/27 12:19:59;;;;;;;12.90;1.27;;;11.60;99.90;;;;;;4908513;29;20520;-57
2022/01/27 12:22:41;;;;;;;3.28;0.60;;;12.00;99.90;;;;;;4907078;29;20059;-57
2022/01/27 12:25:12;;;;;;;5.00;1.38;;;12.10;99.90;;;;;;4892053;29;20440;-57
2022/01/27 12:27:48;;;;;;;4.40;0.90;;;12.00;99.90;;;;;;4900186;29;20670;-57
2022/01/27 12:30:18;;;;;;;6.30;1.13;;;12.20;99.90;;;;;;4912014;29;20059;-57
2022/01/27 12:32:47;;;;;;;6.80;0.68;;;12.60;99.90;;;;;;4905888;29;20052;-58
2022/01/27 12:35:16;;;;;;;4.82;1.00;;;12.70;99.90;;;;;;4893217;29;20057;-66
2022/01/27 12:37:50;;;;;;;4.93;1.10;;;12.80;99.90;;;;;;4897295;29;20048;-67
2022/01/27 12:40:28;;;;;;;8.65;1.20;;;13.10;99.90;;;;;;4912269;29;20052;-65
2022/01/27 12:42:59;;;;;;;5.72;0.77;;;13.30;99.90;;;;;;4905202;29;20052;-63
2022/01/27 12:45:33;;;;;;;9.13;0.93;;;13.40;99.70;;;;;;4893229;29;20045;-67
2022/01/27 12:48:08;;;;;;;4.75;1.00;;;13.50;99.90;;;;;;4909789;29;20059;-67
2022/01/27 12:50:37;;;;;;;5.20;1.10;;;13.50;99.70;;;;;;4910413;29;20063;-63
2022/01/27 12:53:14;;;;;;;8.82;1.08;;;13.50;98.10;;;;;;4894228;29;20483;-66
2022/01/27 12:55:43;;;;;;;5.55;0.63;;;13.50;99.00;;;;;;4910656;29;20374;-64
2022/01/27 12:58:16;;;;;;;4.68;1.40;;;13.60;96.90;;;;;;4901286;29;20049;-65
2022/01/27 13:00:51;;;;;;;5.53;0.95;;;13.40;96.70;;;;;;4898712;29;20657;-64
2022/01/27 13:03:21;;;;;;;3.30;0.40;;;12.90;97.70;;;;;;4898731;29;20045;-60
2022/01/27 13:05:53;;;;;;;6.82;1.02;;;12.60;98.70;;;;;;4897841;29;20047;-65
2022/01/27 13:08:26;;;;;;;4.55;0.73;;;12.30;99.30;;;;;;4905663;29;20377;-64
2022/01/27 13:10:59;;;;;;;4.63;0.98;;;12.20;99.90;;;;;;4898903;29;20048;-62
2022/01/27 13:13:34;;;;;;;9.25;1.20;;;12.00;99.90;;;;;;4897820;29;20049;-66
2022/01/27 13:16:08;;;;;;;6.47;1.05;;;12.10;99.90;;;;;;4893184;29;20393;-66
2022/01/27 13:18:44;;;;;;;4.28;1.20;;;12.60;99.90;;;;;;4900855;29;20063;-66
2022/01/27 13:21:30;;;;;;;8.75;0.90;;;13.20;99.80;;;;;;4897452;29;20048;-67
2022/01/27 13:24:02;;;;;;;6.97;0.70;;;13.70;99.80;;;;;;4900220;29;20052;-66
2022/01/27 13:26:29;;;;;;;9.38;2.20;;;14.00;97.80;;;;;;4912307;29;20408;-66
2022/01/27 13:28:58;;;;;;;7.60;1.20;;;14.40;96.50;;;;;;4912528;29;20063;-63
2022/01/27 13:31:27;;;;;;;4.75;1.45;;;14.50;94.20;;;;;;4912557;29;20607;-62
2022/01/27 13:34:01;;;;;;;7.22;1.05;;;14.60;95.90;;;;;;4911479;29;20044;-62
2022/01/27 13:36:34;;;;;;;9.40;1.92;;;14.70;93.10;;;;;;4909525;29;20052;-58
2022/01/27 13:41:38;;;;;;;8.18;1.05;;;14.20;94.40;;;;;;4901049;29;20063;-65
2022/01/27 13:44:08;;;;;;;6.65;1.33;;;14.00;96.30;;;;;;4895605;29;20063;-66
2022/01/27 13:46:48;;;;;;;14.32;1.58;;;14.00;95.70;;;;;;4892632;29;20071;-63
2022/01/27 13:49:29;;;;;;;8.10;1.45;;;13.90;94.20;;;;;;4892802;29;20409;-61
2022/01/27 13:52:10;;;;;;;5.68;0.95;;;13.70;93.70;;;;;;4892854;29;20056;-61
2022/01/27 13:54:46;;;;;;;9.30;1.60;;;13.40;95.50;;;;;;4894466;29;20060;-60
2022/01/27 13:57:14;;;;;;;7.80;1.23;;;13.10;95.20;;;;;;4911421;29;20538;-61
2022/01/27 13:59:43;;;;;;;10.93;1.92;;;12.70;96.00;;;;;;4911792;29;20067;-62
2022/01/27 14:02:14;;;;;;;8.53;1.67;;;12.60;98.00;;;;;;4911638;29;20502;-59
2022/01/27 14:04:48;;;;;;;9.20;1.10;;;12.40;98.00;;;;;;4911361;29;20742;-61
2022/01/27 14:07:34;;;;;;;5.55;0.80;;;12.20;96.70;;;;;;4905130;29;20075;-64
2022/01/27 14:10:19;;;;;;;8.65;1.20;;;11.90;98.00;;;;;;4892690;29;20345;-62
2022/01/27 14:12:48;;;;;;;10.88;1.50;;;11.60;98.80;;;;;;4892380;29;20492;-58
2022/01/27 14:15:27;;;;;;;8.47;1.97;;;11.80;99.90;;;;;;4892210;29;20049;-57